sensor_id;sensor_type;location;lat;lon;timestamp;P1;durP1;ratioP1;P2;durP2;ratioP2
55417;SDS011;41287;47.554;7.844;2022-08-19T00:01:21;8.18;;;4.47;;
55417;SDS011;41287;47.554;7.844;2022-08-19T00:03:47;5.53;;;3.90;;
55417;SDS011;41287;47.554;7.844;2022-08-19T00:06:13;4.97;;;3.60;;
55417;SDS011;41287;47.554;7.844;2022-08-19T00:08:39;5.57;;;3.90;;
55417;SDS011;41287;47.554;7.844;2022-08-19T00:11:05;5.43;;;3.97;;
55417;SDS011;41287;47.554;7.844;2022-08-19T00:13:30;5.18;;;3.92;;
55417;SDS011;41287;47.554;7.844;2022-08-19T00:15:56;5.68;;;4.00;;
55417;SDS011;41287;47.554;7.844;2022-08-19T00:18:21;5.70;;;4.15;;
55417;SDS011;41287;47.554;7.844;2022-08-19T00:20:46;6.35;;;4.45;;
55417;SDS011;41287;47.554;7.844;2022-08-19T00:23:12;4.90;;;3.83;;
55417;SDS011;41287;47.554;7.844;2022-08-19T00:25:37;5.80;;;3.63;;
55417;SDS011;41287;47.554;7.844;2022-08-19T00:28:03;5.68;;;3.58;;
55417;SDS011;41287;47.554;7.844;2022-08-19T00:30:29;4.70;;;3.70;;
55417;SDS011;41287;47.554;7.844;2022-08-19T00:32:55;5.47;;;4.05;;
55417;SDS011;41287;47.554;7.844;2022-08-19T00:35:21;5.53;;;4.20;;
55417;SDS011;41287;47.554;7.844;2022-08-19T00:37:47;4.82;;;3.90;;
55417;SDS011;41287;47.554;7.844;2022-08-19T00:40:13;6.07;;;4.28;;
55417;SDS011;41287;47.554;7.844;2022-08-19T00:42:40;5.68;;;4.00;;
55417;SDS011;41287;47.554;7.844;2022-08-19T00:45:13;5.07;;;3.63;;
55417;SDS011;41287;47.554;7.844;2022-08-19T00:47:42;5.70;;;3.95;;
55417;SDS011;41287;47.554;7.844;2022-08-19T00:50:09;5.93;;;3.88;;
55417;SDS011;41287;47.554;7.844;2022-08-19T00:52:38;4.95;;;3.97;;
55417;SDS011;41287;47.554;7.844;2022-08-19T00:55:10;6.43;;;3.20;;
55417;SDS011;41287;47.554;7.844;2022-08-19T00:57:40;6.57;;;4.47;;
55417;SDS011;41287;47.554;7.844;2022-08-19T01:00:11;5.25;;;3.80;;
55417;SDS011;41287;47.554;7.844;2022-08-19T01:02:41;4.85;;;3.80;;
55417;SDS011;41287;47.554;7.844;2022-08-19T01:05:08;5.30;;;4.00;;
55417;SDS011;41287;47.554;7.844;2022-08-19T01:07:37;4.90;;;3.70;;
55417;SDS011;41287;47.554;7.844;2022-08-19T01:10:06;6.05;;;4.43;;
55417;SDS011;41287;47.554;7.844;2022-08-19T01:12:35;4.57;;;3.83;;
55417;SDS011;41287;47.554;7.844;2022-08-19T01:15:01;4.63;;;3.63;;
55417;SDS011;41287;47.554;7.844;2022-08-19T01:17:27;5.70;;;3.65;;
55417;SDS011;41287;47.554;7.844;2022-08-19T01:19:52;5.28;;;3.83;;
55417;SDS011;41287;47.554;7.844;2022-08-19T01:22:19;5.03;;;3.60;;
55417;SDS011;41287;47.554;7.844;2022-08-19T01:24:53;5.35;;;3.80;;
55417;SDS011;41287;47.554;7.844;2022-08-19T01:27:18;4.72;;;3.70;;
55417;SDS011;41287;47.554;7.844;2022-08-19T01:29:44;5.55;;;3.63;;
55417;SDS011;41287;47.554;7.844;2022-08-19T01:32:11;5.60;;;3.92;;
55417;SDS011;41287;47.554;7.844;2022-08-19T01:34:38;4.88;;;3.55;;
55417;SDS011;41287;47.554;7.844;2022-08-19T01:37:10;5.15;;;3.75;;
55417;SDS011;41287;47.554;7.844;2022-08-19T01:39:37;5.65;;;4.10;;
55417;SDS011;41287;47.554;7.844;2022-08-19T01:42:04;5.03;;;3.63;;
55417;SDS011;41287;47.554;7.844;2022-08-19T01:44:31;4.90;;;3.65;;
55417;SDS011;41287;47.554;7.844;2022-08-19T01:46:56;5.88;;;3.92;;
55417;SDS011;41287;47.554;7.844;2022-08-19T01:49:22;4.18;;;3.42;;
55417;SDS011;41287;47.554;7.844;2022-08-19T01:51:50;5.80;;;3.90;;
55417;SDS011;41287;47.554;7.844;2022-08-19T01:54:17;4.28;;;3.78;;
55417;SDS011;41287;47.554;7.844;2022-08-19T01:56:43;5.60;;;3.75;;
55417;SDS011;41287;47.554;7.844;2022-08-19T01:59:10;4.78;;;3.33;;
55417;SDS011;41287;47.554;7.844;2022-08-19T02:01:39;4.80;;;3.55;;
55417;SDS011;41287;47.554;7.844;2022-08-19T02:04:06;4.38;;;3.38;;
55417;SDS011;41287;47.554;7.844;2022-08-19T02:06:32;5.72;;;3.97;;
55417;SDS011;41287;47.554;7.844;2022-08-19T02:08:58;4.40;;;3.20;;
55417;SDS011;41287;47.554;7.844;2022-08-19T02:11:25;4.72;;;3.53;;
55417;SDS011;41287;47.554;7.844;2022-08-19T02:13:56;5.63;;;3.88;;
55417;SDS011;41287;47.554;7.844;2022-08-19T02:16:23;5.13;;;3.70;;
55417;SDS011;41287;47.554;7.844;2022-08-19T02:18:48;4.65;;;3.22;;
55417;SDS011;41287;47.554;7.844;2022-08-19T02:21:15;6.00;;;3.75;;
55417;SDS011;41287;47.554;7.844;2022-08-19T02:23:45;4.68;;;3.45;;
55417;SDS011;41287;47.554;7.844;2022-08-19T02:26:11;5.43;;;3.83;;
55417;SDS011;41287;47.554;7.844;2022-08-19T02:28:37;5.72;;;3.95;;
55417;SDS011;41287;47.554;7.844;2022-08-19T02:31:03;4.63;;;3.55;;
55417;SDS011;41287;47.554;7.844;2022-08-19T02:33:33;5.90;;;3.58;;
55417;SDS011;41287;47.554;7.844;2022-08-19T02:35:59;5.00;;;3.60;;
55417;SDS011;41287;47.554;7.844;2022-08-19T02:38:24;5.60;;;3.90;;
55417;SDS011;41287;47.554;7.844;2022-08-19T02:41:26;4.63;;;3.50;;
55417;SDS011;41287;47.554;7.844;2022-08-19T02:43:46;4.15;;;3.28;;
55417;SDS011;41287;47.554;7.844;2022-08-19T02:46:13;4.95;;;3.50;;
55417;SDS011;41287;47.554;7.844;2022-08-19T02:48:42;5.35;;;3.97;;
55417;SDS011;41287;47.554;7.844;2022-08-19T02:51:08;4.75;;;3.33;;
55417;SDS011;41287;47.554;7.844;2022-08-19T02:53:33;4.13;;;3.33;;
55417;SDS011;41287;47.554;7.844;2022-08-19T02:55:59;4.72;;;3.20;;
55417;SDS011;41287;47.554;7.844;2022-08-19T02:58:24;5.45;;;3.50;;
55417;SDS011;41287;47.554;7.844;2022-08-19T03:00:52;4.45;;;3.25;;
55417;SDS011;41287;47.554;7.844;2022-08-19T03:03:20;4.25;;;3.00;;
55417;SDS011;41287;47.554;7.844;2022-08-19T03:05:46;3.85;;;3.33;;
55417;SDS011;41287;47.554;7.844;2022-08-19T03:08:12;5.35;;;3.67;;
55417;SDS011;41287;47.554;7.844;2022-08-19T03:10:43;4.60;;;3.45;;
55417;SDS011;41287;47.554;7.844;2022-08-19T03:13:12;3.80;;;3.03;;
55417;SDS011;41287;47.554;7.844;2022-08-19T03:15:40;4.13;;;3.35;;
55417;SDS011;41287;47.554;7.844;2022-08-19T03:18:07;4.80;;;3.50;;
55417;SDS011;41287;47.554;7.844;2022-08-19T03:20:33;3.60;;;3.20;;
55417;SDS011;41287;47.554;7.844;2022-08-19T03:22:58;5.18;;;3.75;;
55417;SDS011;41287;47.554;7.844;2022-08-19T03:25:24;4.63;;;3.40;;
55417;SDS011;41287;47.554;7.844;2022-08-19T03:27:49;3.90;;;3.00;;
55417;SDS011;41287;47.554;7.844;2022-08-19T03:30:15;3.60;;;2.92;;
55417;SDS011;41287;47.554;7.844;2022-08-19T03:32:40;4.35;;;3.15;;
55417;SDS011;41287;47.554;7.844;2022-08-19T03:35:05;4.85;;;3.58;;
55417;SDS011;41287;47.554;7.844;2022-08-19T03:37:31;5.32;;;3.70;;
55417;SDS011;41287;47.554;7.844;2022-08-19T03:39:57;3.67;;;3.00;;
55417;SDS011;41287;47.554;7.844;2022-08-19T03:42:22;5.85;;;3.35;;
55417;SDS011;41287;47.554;7.844;2022-08-19T03:44:48;5.28;;;3.38;;
55417;SDS011;41287;47.554;7.844;2022-08-19T03:47:13;4.90;;;3.17;;
55417;SDS011;41287;47.554;7.844;2022-08-19T03:49:41;3.97;;;2.97;;
55417;SDS011;41287;47.554;7.844;2022-08-19T03:52:07;4.15;;;2.85;;
55417;SDS011;41287;47.554;7.844;2022-08-19T03:54:32;3.83;;;2.80;;
55417;SDS011;41287;47.554;7.844;2022-08-19T03:56:59;7.88;;;3.33;;
55417;SDS011;41287;47.554;7.844;2022-08-19T03:59:29;7.35;;;3.03;;
55417;SDS011;41287;47.554;7.844;2022-08-19T04:01:57;9.98;;;3.10;;
55417;SDS011;41287;47.554;7.844;2022-08-19T04:04:25;6.35;;;3.00;;
55417;SDS011;41287;47.554;7.844;2022-08-19T04:06:52;3.55;;;2.75;;
55417;SDS011;41287;47.554;7.844;2022-08-19T04:09:17;4.45;;;2.70;;
55417;SDS011;41287;47.554;7.844;2022-08-19T04:11:48;4.70;;;2.97;;
55417;SDS011;41287;47.554;7.844;2022-08-19T04:14:19;4.63;;;2.67;;
55417;SDS011;41287;47.554;7.844;2022-08-19T04:16:46;4.45;;;2.85;;
55417;SDS011;41287;47.554;7.844;2022-08-19T04:19:13;4.88;;;2.50;;
55417;SDS011;41287;47.554;7.844;2022-08-19T04:21:40;4.45;;;2.50;;
55417;SDS011;41287;47.554;7.844;2022-08-19T04:24:08;6.72;;;2.75;;
55417;SDS011;41287;47.554;7.844;2022-08-19T04:26:35;4.38;;;2.50;;
55417;SDS011;41287;47.554;7.844;2022-08-19T04:29:04;4.50;;;2.38;;
55417;SDS011;41287;47.554;7.844;2022-08-19T04:31:31;4.38;;;2.85;;
55417;SDS011;41287;47.554;7.844;2022-08-19T04:34:00;4.03;;;2.30;;
55417;SDS011;41287;47.554;7.844;2022-08-19T04:36:29;4.40;;;2.38;;
55417;SDS011;41287;47.554;7.844;2022-08-19T04:38:58;3.95;;;2.47;;
55417;SDS011;41287;47.554;7.844;2022-08-19T04:41:26;3.35;;;2.33;;
55417;SDS011;41287;47.554;7.844;2022-08-19T04:44:10;5.13;;;3.25;;
55417;SDS011;41287;47.554;7.844;2022-08-19T04:46:36;4.35;;;2.58;;
55417;SDS011;41287;47.554;7.844;2022-08-19T04:49:02;5.15;;;2.97;;
55417;SDS011;41287;47.554;7.844;2022-08-19T04:51:30;5.30;;;3.33;;
55417;SDS011;41287;47.554;7.844;2022-08-19T04:53:56;4.57;;;2.70;;
55417;SDS011;41287;47.554;7.844;2022-08-19T04:56:21;5.20;;;3.20;;
55417;SDS011;41287;47.554;7.844;2022-08-19T04:58:47;4.45;;;3.20;;
55417;SDS011;41287;47.554;7.844;2022-08-19T05:01:19;5.13;;;3.80;;
55417;SDS011;41287;47.554;7.844;2022-08-19T05:03:47;6.03;;;3.70;;
55417;SDS011;41287;47.554;7.844;2022-08-19T05:06:13;5.80;;;3.78;;
55417;SDS011;41287;47.554;7.844;2022-08-19T05:08:41;5.00;;;3.60;;
55417;SDS011;41287;47.554;7.844;2022-08-19T05:11:12;6.72;;;4.03;;
55417;SDS011;41287;47.554;7.844;2022-08-19T05:13:45;5.60;;;3.60;;
55417;SDS011;41287;47.554;7.844;2022-08-19T05:16:13;7.72;;;4.00;;
55417;SDS011;41287;47.554;7.844;2022-08-19T05:18:39;7.88;;;4.20;;
55417;SDS011;41287;47.554;7.844;2022-08-19T05:21:24;4.93;;;3.50;;
55417;SDS011;41287;47.554;7.844;2022-08-19T05:24:09;5.85;;;4.07;;
55417;SDS011;41287;47.554;7.844;2022-08-19T05:26:38;6.70;;;4.13;;
55417;SDS011;41287;47.554;7.844;2022-08-19T05:29:06;5.95;;;3.65;;
55417;SDS011;41287;47.554;7.844;2022-08-19T05:31:35;8.68;;;4.00;;
55417;SDS011;41287;47.554;7.844;2022-08-19T05:34:01;6.50;;;4.13;;
55417;SDS011;41287;47.554;7.844;2022-08-19T05:36:32;8.13;;;4.25;;
55417;SDS011;41287;47.554;7.844;2022-08-19T05:39:00;11.15;;;3.65;;
55417;SDS011;41287;47.554;7.844;2022-08-19T05:41:26;14.95;;;3.97;;
55417;SDS011;41287;47.554;7.844;2022-08-19T05:43:54;6.10;;;3.53;;
55417;SDS011;41287;47.554;7.844;2022-08-19T05:46:25;10.32;;;3.63;;
55417;SDS011;41287;47.554;7.844;2022-08-19T05:48:51;6.57;;;3.45;;
55417;SDS011;41287;47.554;7.844;2022-08-19T05:51:16;9.02;;;3.90;;
55417;SDS011;41287;47.554;7.844;2022-08-19T05:53:42;9.40;;;3.90;;
55417;SDS011;41287;47.554;7.844;2022-08-19T05:56:11;7.43;;;3.50;;
55417;SDS011;41287;47.554;7.844;2022-08-19T05:58:39;6.00;;;3.67;;
55417;SDS011;41287;47.554;7.844;2022-08-19T06:01:09;8.27;;;3.33;;
55417;SDS011;41287;47.554;7.844;2022-08-19T06:03:35;5.18;;;3.13;;
55417;SDS011;41287;47.554;7.844;2022-08-19T06:06:02;7.15;;;3.67;;
55417;SDS011;41287;47.554;7.844;2022-08-19T06:08:28;6.30;;;4.15;;
55417;SDS011;41287;47.554;7.844;2022-08-19T06:10:54;8.45;;;4.18;;
55417;SDS011;41287;47.554;7.844;2022-08-19T06:13:20;5.60;;;3.30;;
55417;SDS011;41287;47.554;7.844;2022-08-19T06:15:50;5.47;;;3.25;;
55417;SDS011;41287;47.554;7.844;2022-08-19T06:18:16;6.25;;;3.05;;
55417;SDS011;41287;47.554;7.844;2022-08-19T06:20:41;5.28;;;3.25;;
55417;SDS011;41287;47.554;7.844;2022-08-19T06:23:07;5.40;;;2.72;;
55417;SDS011;41287;47.554;7.844;2022-08-19T06:25:33;10.60;;;4.05;;
55417;SDS011;41287;47.554;7.844;2022-08-19T06:27:59;4.30;;;2.80;;
55417;SDS011;41287;47.554;7.844;2022-08-19T06:30:24;5.35;;;3.30;;
55417;SDS011;41287;47.554;7.844;2022-08-19T06:32:50;5.55;;;3.20;;
55417;SDS011;41287;47.554;7.844;2022-08-19T06:35:16;7.85;;;3.30;;
55417;SDS011;41287;47.554;7.844;2022-08-19T06:37:43;5.25;;;2.90;;
55417;SDS011;41287;47.554;7.844;2022-08-19T06:40:09;4.05;;;3.00;;
55417;SDS011;41287;47.554;7.844;2022-08-19T06:42:35;8.35;;;3.60;;
55417;SDS011;41287;47.554;7.844;2022-08-19T06:45:03;5.40;;;3.35;;
55417;SDS011;41287;47.554;7.844;2022-08-19T06:47:29;5.80;;;3.70;;
55417;SDS011;41287;47.554;7.844;2022-08-19T06:49:57;5.15;;;2.95;;
55417;SDS011;41287;47.554;7.844;2022-08-19T06:52:30;3.42;;;2.55;;
55417;SDS011;41287;47.554;7.844;2022-08-19T06:55:01;5.45;;;3.17;;
55417;SDS011;41287;47.554;7.844;2022-08-19T06:57:30;6.78;;;2.70;;
55417;SDS011;41287;47.554;7.844;2022-08-19T06:59:57;4.07;;;2.72;;
55417;SDS011;41287;47.554;7.844;2022-08-19T07:02:25;4.78;;;2.92;;
55417;SDS011;41287;47.554;7.844;2022-08-19T07:04:51;4.55;;;2.75;;
55417;SDS011;41287;47.554;7.844;2022-08-19T07:07:20;6.22;;;3.17;;
55417;SDS011;41287;47.554;7.844;2022-08-19T07:09:46;5.43;;;3.20;;
55417;SDS011;41287;47.554;7.844;2022-08-19T07:12:15;3.88;;;2.90;;
55417;SDS011;41287;47.554;7.844;2022-08-19T07:14:41;4.47;;;3.08;;
55417;SDS011;41287;47.554;7.844;2022-08-19T07:17:10;3.97;;;2.75;;
55417;SDS011;41287;47.554;7.844;2022-08-19T07:19:37;3.92;;;2.55;;
55417;SDS011;41287;47.554;7.844;2022-08-19T07:22:05;4.10;;;2.83;;
55417;SDS011;41287;47.554;7.844;2022-08-19T07:24:32;5.18;;;2.90;;
55417;SDS011;41287;47.554;7.844;2022-08-19T07:26:59;3.63;;;2.85;;
55417;SDS011;41287;47.554;7.844;2022-08-19T07:29:28;3.90;;;2.90;;
55417;SDS011;41287;47.554;7.844;2022-08-19T07:31:55;5.93;;;2.80;;
55417;SDS011;41287;47.554;7.844;2022-08-19T07:34:23;4.78;;;3.05;;
55417;SDS011;41287;47.554;7.844;2022-08-19T07:36:50;4.15;;;3.00;;
55417;SDS011;41287;47.554;7.844;2022-08-19T07:39:19;3.88;;;2.90;;
55417;SDS011;41287;47.554;7.844;2022-08-19T07:41:47;4.80;;;3.00;;
55417;SDS011;41287;47.554;7.844;2022-08-19T07:44:14;3.10;;;2.53;;
55417;SDS011;41287;47.554;7.844;2022-08-19T07:46:44;3.97;;;2.95;;
55417;SDS011;41287;47.554;7.844;2022-08-19T07:49:14;4.82;;;2.92;;
55417;SDS011;41287;47.554;7.844;2022-08-19T07:51:45;3.83;;;2.90;;
55417;SDS011;41287;47.554;7.844;2022-08-19T07:54:16;5.82;;;3.53;;
55417;SDS011;41287;47.554;7.844;2022-08-19T07:56:44;4.50;;;2.58;;
55417;SDS011;41287;47.554;7.844;2022-08-19T07:59:09;4.35;;;2.78;;
55417;SDS011;41287;47.554;7.844;2022-08-19T08:01:35;3.05;;;2.58;;
55417;SDS011;41287;47.554;7.844;2022-08-19T08:04:01;5.47;;;2.65;;
55417;SDS011;41287;47.554;7.844;2022-08-19T08:06:45;5.65;;;2.65;;
55417;SDS011;41287;47.554;7.844;2022-08-19T08:09:31;4.13;;;2.80;;
55417;SDS011;41287;47.554;7.844;2022-08-19T08:12:07;4.25;;;2.70;;
55417;SDS011;41287;47.554;7.844;2022-08-19T08:14:41;6.25;;;2.85;;
55417;SDS011;41287;47.554;7.844;2022-08-19T08:17:08;3.25;;;2.58;;
55417;SDS011;41287;47.554;7.844;2022-08-19T08:19:35;5.10;;;3.00;;
55417;SDS011;41287;47.554;7.844;2022-08-19T08:22:02;3.90;;;2.60;;
55417;SDS011;41287;47.554;7.844;2022-08-19T08:24:30;3.55;;;2.63;;
55417;SDS011;41287;47.554;7.844;2022-08-19T08:26:56;3.50;;;2.85;;
55417;SDS011;41287;47.554;7.844;2022-08-19T08:29:26;4.95;;;2.75;;
55417;SDS011;41287;47.554;7.844;2022-08-19T08:31:52;4.57;;;3.10;;
55417;SDS011;41287;47.554;7.844;2022-08-19T08:34:18;4.05;;;2.58;;
55417;SDS011;41287;47.554;7.844;2022-08-19T08:36:45;4.35;;;2.63;;
55417;SDS011;41287;47.554;7.844;2022-08-19T08:39:12;4.07;;;2.72;;
55417;SDS011;41287;47.554;7.844;2022-08-19T08:41:58;4.22;;;2.20;;
55417;SDS011;41287;47.554;7.844;2022-08-19T08:47:20;4.75;;;2.22;;
55417;SDS011;41287;47.554;7.844;2022-08-19T08:50:00;3.92;;;2.60;;
55417;SDS011;41287;47.554;7.844;2022-08-19T08:55:08;4.07;;;2.40;;
55417;SDS011;41287;47.554;7.844;2022-08-19T09:00:17;2.83;;;2.15;;
55417;SDS011;41287;47.554;7.844;2022-08-19T09:02:46;3.50;;;2.08;;
55417;SDS011;41287;47.554;7.844;2022-08-19T09:05:12;4.20;;;2.20;;
55417;SDS011;41287;47.554;7.844;2022-08-19T09:15:44;5.28;;;2.78;;
55417;SDS011;41287;47.554;7.844;2022-08-19T09:18:12;3.08;;;2.13;;
55417;SDS011;41287;47.554;7.844;2022-08-19T09:20:38;2.90;;;2.40;;
55417;SDS011;41287;47.554;7.844;2022-08-19T09:23:04;2.75;;;2.08;;
55417;SDS011;41287;47.554;7.844;2022-08-19T09:25:29;2.45;;;1.90;;
55417;SDS011;41287;47.554;7.844;2022-08-19T09:27:56;4.18;;;2.20;;
55417;SDS011;41287;47.554;7.844;2022-08-19T09:30:26;4.30;;;2.30;;
55417;SDS011;41287;47.554;7.844;2022-08-19T09:32:53;3.72;;;2.35;;
55417;SDS011;41287;47.554;7.844;2022-08-19T09:35:23;5.13;;;2.47;;
55417;SDS011;41287;47.554;7.844;2022-08-19T09:37:51;2.78;;;1.80;;
55417;SDS011;41287;47.554;7.844;2022-08-19T09:40:18;2.65;;;1.98;;
55417;SDS011;41287;47.554;7.844;2022-08-19T09:42:45;2.55;;;2.03;;
55417;SDS011;41287;47.554;7.844;2022-08-19T09:45:14;4.13;;;2.30;;
55417;SDS011;41287;47.554;7.844;2022-08-19T09:47:40;1.98;;;1.67;;
55417;SDS011;41287;47.554;7.844;2022-08-19T09:50:07;3.03;;;2.38;;
55417;SDS011;41287;47.554;7.844;2022-08-19T09:52:34;4.85;;;2.30;;
55417;SDS011;41287;47.554;7.844;2022-08-19T09:55:01;3.90;;;2.42;;
55417;SDS011;41287;47.554;7.844;2022-08-19T09:57:30;2.70;;;2.15;;
55417;SDS011;41287;47.554;7.844;2022-08-19T09:59:55;2.50;;;1.83;;
55417;SDS011;41287;47.554;7.844;2022-08-19T10:02:21;4.57;;;2.53;;
55417;SDS011;41287;47.554;7.844;2022-08-19T10:04:46;3.10;;;2.10;;
55417;SDS011;41287;47.554;7.844;2022-08-19T10:07:30;3.95;;;2.22;;
55417;SDS011;41287;47.554;7.844;2022-08-19T10:09:56;2.90;;;2.45;;
55417;SDS011;41287;47.554;7.844;2022-08-19T10:12:21;6.32;;;2.05;;
55417;SDS011;41287;47.554;7.844;2022-08-19T10:14:47;2.60;;;2.00;;
55417;SDS011;41287;47.554;7.844;2022-08-19T10:17:13;4.80;;;2.35;;
55417;SDS011;41287;47.554;7.844;2022-08-19T10:19:39;2.63;;;2.17;;
55417;SDS011;41287;47.554;7.844;2022-08-19T10:22:06;4.07;;;2.53;;
55417;SDS011;41287;47.554;7.844;2022-08-19T10:24:32;3.88;;;2.17;;
55417;SDS011;41287;47.554;7.844;2022-08-19T10:26:59;4.25;;;2.53;;
55417;SDS011;41287;47.554;7.844;2022-08-19T10:29:29;5.90;;;3.10;;
55417;SDS011;41287;47.554;7.844;2022-08-19T10:31:55;5.35;;;2.88;;
55417;SDS011;41287;47.554;7.844;2022-08-19T10:34:21;4.82;;;2.92;;
55417;SDS011;41287;47.554;7.844;2022-08-19T10:36:47;6.82;;;3.15;;
55417;SDS011;41287;47.554;7.844;2022-08-19T10:39:13;7.38;;;3.45;;
55417;SDS011;41287;47.554;7.844;2022-08-19T10:41:39;7.03;;;3.63;;
55417;SDS011;41287;47.554;7.844;2022-08-19T10:44:09;8.40;;;3.55;;
55417;SDS011;41287;47.554;7.844;2022-08-19T10:46:36;10.40;;;3.75;;
55417;SDS011;41287;47.554;7.844;2022-08-19T10:49:07;9.68;;;3.50;;
55417;SDS011;41287;47.554;7.844;2022-08-19T10:51:34;6.65;;;3.35;;
55417;SDS011;41287;47.554;7.844;2022-08-19T10:54:18;12.35;;;5.07;;
55417;SDS011;41287;47.554;7.844;2022-08-19T10:56:44;10.70;;;3.90;;
55417;SDS011;41287;47.554;7.844;2022-08-19T10:59:16;11.40;;;4.90;;
55417;SDS011;41287;47.554;7.844;2022-08-19T11:01:58;8.98;;;4.65;;
55417;SDS011;41287;47.554;7.844;2022-08-19T11:04:25;9.40;;;4.05;;
55417;SDS011;41287;47.554;7.844;2022-08-19T11:06:51;11.02;;;4.35;;
55417;SDS011;41287;47.554;7.844;2022-08-19T11:09:21;7.45;;;4.15;;
55417;SDS011;41287;47.554;7.844;2022-08-19T11:11:51;10.50;;;4.47;;
55417;SDS011;41287;47.554;7.844;2022-08-19T11:14:18;10.25;;;4.18;;
55417;SDS011;41287;47.554;7.844;2022-08-19T11:16:46;9.63;;;3.97;;
55417;SDS011;41287;47.554;7.844;2022-08-19T11:19:12;12.35;;;4.72;;
55417;SDS011;41287;47.554;7.844;2022-08-19T11:21:41;11.45;;;4.22;;
55417;SDS011;41287;47.554;7.844;2022-08-19T11:24:13;11.68;;;4.53;;
55417;SDS011;41287;47.554;7.844;2022-08-19T11:26:41;10.18;;;4.22;;
55417;SDS011;41287;47.554;7.844;2022-08-19T11:29:08;10.57;;;4.75;;
55417;SDS011;41287;47.554;7.844;2022-08-19T11:31:36;9.48;;;4.18;;
55417;SDS011;41287;47.554;7.844;2022-08-19T11:34:05;12.90;;;4.72;;
55417;SDS011;41287;47.554;7.844;2022-08-19T11:36:32;10.77;;;4.45;;
55417;SDS011;41287;47.554;7.844;2022-08-19T11:38:59;11.00;;;4.28;;
55417;SDS011;41287;47.554;7.844;2022-08-19T11:41:26;14.95;;;5.15;;
55417;SDS011;41287;47.554;7.844;2022-08-19T11:43:52;11.63;;;4.97;;
55417;SDS011;41287;47.554;7.844;2022-08-19T11:46:20;12.77;;;5.50;;
55417;SDS011;41287;47.554;7.844;2022-08-19T11:48:47;11.90;;;5.05;;
55417;SDS011;41287;47.554;7.844;2022-08-19T11:51:16;11.35;;;4.47;;
55417;SDS011;41287;47.554;7.844;2022-08-19T11:53:46;13.63;;;5.20;;
55417;SDS011;41287;47.554;7.844;2022-08-19T11:56:12;10.52;;;4.38;;
55417;SDS011;41287;47.554;7.844;2022-08-19T11:58:38;10.68;;;4.70;;
55417;SDS011;41287;47.554;7.844;2022-08-19T12:01:10;13.65;;;5.30;;
55417;SDS011;41287;47.554;7.844;2022-08-19T12:03:38;13.05;;;5.57;;
55417;SDS011;41287;47.554;7.844;2022-08-19T12:06:05;18.35;;;5.07;;
55417;SDS011;41287;47.554;7.844;2022-08-19T12:08:31;15.10;;;5.25;;
55417;SDS011;41287;47.554;7.844;2022-08-19T12:10:57;12.23;;;5.57;;
55417;SDS011;41287;47.554;7.844;2022-08-19T12:13:23;12.10;;;4.78;;
55417;SDS011;41287;47.554;7.844;2022-08-19T12:15:49;10.82;;;4.57;;
55417;SDS011;41287;47.554;7.844;2022-08-19T12:18:14;11.90;;;4.57;;
55417;SDS011;41287;47.554;7.844;2022-08-19T12:20:40;12.90;;;5.43;;
55417;SDS011;41287;47.554;7.844;2022-08-19T12:23:07;12.00;;;5.38;;
55417;SDS011;41287;47.554;7.844;2022-08-19T12:25:34;13.90;;;4.95;;
55417;SDS011;41287;47.554;7.844;2022-08-19T12:28:00;9.80;;;4.40;;
55417;SDS011;41287;47.554;7.844;2022-08-19T12:30:26;13.00;;;5.68;;
55417;SDS011;41287;47.554;7.844;2022-08-19T12:32:52;11.93;;;4.90;;
55417;SDS011;41287;47.554;7.844;2022-08-19T12:35:18;14.35;;;5.28;;
55417;SDS011;41287;47.554;7.844;2022-08-19T12:37:45;12.27;;;5.00;;
55417;SDS011;41287;47.554;7.844;2022-08-19T12:40:12;12.07;;;4.43;;
55417;SDS011;41287;47.554;7.844;2022-08-19T12:42:40;10.65;;;4.60;;
55417;SDS011;41287;47.554;7.844;2022-08-19T12:45:07;9.32;;;4.10;;
55417;SDS011;41287;47.554;7.844;2022-08-19T12:47:34;13.38;;;5.07;;
55417;SDS011;41287;47.554;7.844;2022-08-19T12:50:00;10.77;;;4.80;;
55417;SDS011;41287;47.554;7.844;2022-08-19T12:52:26;13.07;;;4.93;;
55417;SDS011;41287;47.554;7.844;2022-08-19T12:54:53;12.38;;;4.75;;
55417;SDS011;41287;47.554;7.844;2022-08-19T12:57:20;13.27;;;5.18;;
55417;SDS011;41287;47.554;7.844;2022-08-19T12:59:53;10.07;;;4.35;;
55417;SDS011;41287;47.554;7.844;2022-08-19T13:02:19;8.88;;;4.43;;
55417;SDS011;41287;47.554;7.844;2022-08-19T13:04:45;11.52;;;4.60;;
55417;SDS011;41287;47.554;7.844;2022-08-19T13:07:10;10.23;;;5.03;;
55417;SDS011;41287;47.554;7.844;2022-08-19T13:09:36;13.25;;;5.15;;
55417;SDS011;41287;47.554;7.844;2022-08-19T13:12:02;12.75;;;5.53;;
55417;SDS011;41287;47.554;7.844;2022-08-19T13:14:32;9.77;;;4.60;;
55417;SDS011;41287;47.554;7.844;2022-08-19T13:16:58;10.40;;;4.55;;
55417;SDS011;41287;47.554;7.844;2022-08-19T13:19:23;10.32;;;5.07;;
55417;SDS011;41287;47.554;7.844;2022-08-19T13:21:49;10.15;;;4.47;;
55417;SDS011;41287;47.554;7.844;2022-08-19T13:24:16;8.88;;;4.30;;
55417;SDS011;41287;47.554;7.844;2022-08-19T13:26:41;13.85;;;5.15;;
55417;SDS011;41287;47.554;7.844;2022-08-19T13:29:07;10.25;;;4.63;;
55417;SDS011;41287;47.554;7.844;2022-08-19T13:31:51;12.32;;;5.53;;
55417;SDS011;41287;47.554;7.844;2022-08-19T13:34:35;11.95;;;6.00;;
55417;SDS011;41287;47.554;7.844;2022-08-19T13:37:02;12.93;;;6.00;;
55417;SDS011;41287;47.554;7.844;2022-08-19T13:39:29;11.70;;;6.35;;
55417;SDS011;41287;47.554;7.844;2022-08-19T13:41:57;12.57;;;6.65;;
55417;SDS011;41287;47.554;7.844;2022-08-19T13:44:24;12.52;;;7.35;;
55417;SDS011;41287;47.554;7.844;2022-08-19T13:46:50;12.90;;;7.10;;
55417;SDS011;41287;47.554;7.844;2022-08-19T13:49:17;11.95;;;6.75;;
55417;SDS011;41287;47.554;7.844;2022-08-19T13:51:43;12.40;;;7.45;;
55417;SDS011;41287;47.554;7.844;2022-08-19T13:54:09;11.50;;;7.63;;
55417;SDS011;41287;47.554;7.844;2022-08-19T13:56:40;11.20;;;7.40;;
55417;SDS011;41287;47.554;7.844;2022-08-19T13:59:10;14.10;;;8.27;;
55417;SDS011;41287;47.554;7.844;2022-08-19T14:01:36;12.68;;;7.65;;
55417;SDS011;41287;47.554;7.844;2022-08-19T14:04:03;12.68;;;8.23;;
55417;SDS011;41287;47.554;7.844;2022-08-19T14:06:29;12.77;;;7.93;;
55417;SDS011;41287;47.554;7.844;2022-08-19T14:08:54;10.98;;;7.15;;
55417;SDS011;41287;47.554;7.844;2022-08-19T14:11:20;12.73;;;8.02;;
55417;SDS011;41287;47.554;7.844;2022-08-19T14:13:47;13.02;;;7.65;;
55417;SDS011;41287;47.554;7.844;2022-08-19T14:16:13;15.55;;;8.43;;
55417;SDS011;41287;47.554;7.844;2022-08-19T14:18:39;11.57;;;7.93;;
55417;SDS011;41287;47.554;7.844;2022-08-19T14:21:05;12.13;;;7.32;;
55417;SDS011;41287;47.554;7.844;2022-08-19T14:23:33;12.40;;;7.15;;
55417;SDS011;41287;47.554;7.844;2022-08-19T14:26:04;11.65;;;7.60;;
55417;SDS011;41287;47.554;7.844;2022-08-19T14:28:32;11.70;;;7.72;;
55417;SDS011;41287;47.554;7.844;2022-08-19T14:30:57;11.00;;;7.25;;
55417;SDS011;41287;47.554;7.844;2022-08-19T14:33:22;11.90;;;7.25;;
55417;SDS011;41287;47.554;7.844;2022-08-19T14:35:48;13.38;;;7.30;;
55417;SDS011;41287;47.554;7.844;2022-08-19T14:38:17;13.20;;;7.95;;
55417;SDS011;41287;47.554;7.844;2022-08-19T14:40:43;12.90;;;7.53;;
55417;SDS011;41287;47.554;7.844;2022-08-19T14:43:09;12.73;;;7.43;;
55417;SDS011;41287;47.554;7.844;2022-08-19T14:45:36;10.90;;;6.72;;
55417;SDS011;41287;47.554;7.844;2022-08-19T14:48:03;11.65;;;7.50;;
55417;SDS011;41287;47.554;7.844;2022-08-19T14:50:29;11.95;;;7.43;;
55417;SDS011;41287;47.554;7.844;2022-08-19T14:53:02;10.77;;;6.72;;
55417;SDS011;41287;47.554;7.844;2022-08-19T14:55:30;9.18;;;6.32;;
55417;SDS011;41287;47.554;7.844;2022-08-19T14:57:56;10.15;;;6.80;;
55417;SDS011;41287;47.554;7.844;2022-08-19T15:00:22;11.13;;;7.32;;
55417;SDS011;41287;47.554;7.844;2022-08-19T15:02:50;12.52;;;8.25;;